Time;durP1;ratioP1;P1;durP2;ratioP2;P2;SDS_P1;SDS_P2;PMS_P1;PMS_P2;Temp;Humidity;BMP_temperature;BMP_pressure;BME280_temperature;BME280_humidity;BME280_pressure;Samples;Min_cycle;Max_cycle;Signal;HPM_P1;HPM_P2
2023/09/01 00:00:47;;;;;;;8.93;7.13;;;31.40;99.90;;;;;;5015871;28;20057;-47
2023/09/01 00:03:13;;;;;;;7.88;6.03;;;31.40;99.90;;;;;;5015382;28;20351;-46
2023/09/01 00:05:39;;;;;;;7.55;6.13;;;31.40;99.90;;;;;;5015309;28;20044;-46
2023/09/01 00:08:06;;;;;;;7.65;6.45;;;31.40;99.90;;;;;;5015403;28;20517;-47
2023/09/01 00:10:35;;;;;;;9.57;6.70;;;31.40;99.90;;;;;;5015634;28;20022;-47
2023/09/01 00:13:02;;;;;;;7.82;6.75;;;31.40;99.90;;;;;;5015520;28;20429;-46
2023/09/01 00:15:28;;;;;;;7.10;6.07;;;31.40;99.90;;;;;;5015371;28;20498;-47
2023/09/01 00:17:54;;;;;;;8.27;6.50;;;31.40;99.90;;;;;;5015235;28;20030;-46
2023/09/01 00:20:20;;;;;;;6.68;5.97;;;31.40;99.90;;;;;;5015131;28;20478;-47
2023/09/01 00:22:46;;;;;;;8.55;6.20;;;31.40;99.90;;;;;;5015149;28;20053;-47
2023/09/01 00:25:11;;;;;;;8.18;6.43;;;31.40;99.90;;;;;;5015180;28;20029;-46
2023/09/01 00:27:37;;;;;;;8.45;5.85;;;31.40;99.90;;;;;;5013865;28;20037;-46
2023/09/01 00:30:03;;;;;;;6.28;5.45;;;31.30;99.90;;;;;;4997533;28;20026;-47
2023/09/01 00:32:29;;;;;;;8.45;6.70;;;31.30;99.90;;;;;;5014977;28;20022;-46
2023/09/01 00:34:56;;;;;;;6.72;5.90;;;31.30;99.90;;;;;;5014716;28;20509;-46
2023/09/01 00:37:22;;;;;;;;;;;31.30;99.90;;;;;;5015245;28;20018;-46
2023/09/01 00:39:48;;;;;;;6.93;5.97;;;31.30;99.90;;;;;;5014703;28;19913;-46
2023/09/01 00:42:14;;;;;;;8.10;5.60;;;31.30;99.90;;;;;;5014665;28;20037;-46
2023/09/01 00:44:39;;;;;;;9.25;6.13;;;31.30;99.90;;;;;;5014504;28;20036;-46
2023/09/01 00:47:05;;;;;;;8.13;6.05;;;31.30;99.90;;;;;;5014523;28;20148;-46
2023/09/01 00:49:32;;;;;;;6.28;5.32;;;31.30;99.90;;;;;;5014759;28;20037;-47
2023/09/01 00:51:59;;;;;;;7.00;6.10;;;31.30;99.90;;;;;;5014456;28;20018;-46
2023/09/01 00:54:25;;;;;;;7.33;5.67;;;31.30;99.90;;;;;;5014352;28;20526;-48
2023/09/01 00:56:54;;;;;;;6.77;5.60;;;31.30;99.90;;;;;;5014548;28;20252;-47
2023/09/01 00:59:20;;;;;;;7.50;6.07;;;31.30;99.90;;;;;;5014298;28;20041;-47
2023/09/01 01:01:47;;;;;;;7.63;5.88;;;31.30;99.90;;;;;;5026133;22;20062;-54
2023/09/01 01:04:15;;;;;;;7.72;5.90;;;31.20;99.90;;;;;;5013274;28;20029;-54
2023/09/01 01:07:06;;;;;;;7.20;6.20;;;31.20;99.90;;;;;;5014275;28;20549;-54
2023/09/01 01:10:00;;;;;;;6.93;5.72;;;31.20;99.90;;;;;;5014600;28;20434;-56
2023/09/01 01:12:32;;;;;;;6.03;5.28;;;31.20;99.90;;;;;;5014303;28;20029;-55
2023/09/01 01:15:01;;;;;;;6.93;5.60;;;31.20;99.90;;;;;;5013891;28;20049;-55
2023/09/01 01:17:28;;;;;;;6.80;5.05;;;31.20;99.90;;;;;;5014022;28;20018;-55
2023/09/01 01:20:18;;;;;;;6.32;5.03;;;31.20;99.90;;;;;;5013878;28;20025;-54
2023/09/01 01:23:07;;;;;;;6.43;5.50;;;31.20;99.90;;;;;;5013924;28;20026;-53
2023/09/01 01:25:33;;;;;;;6.68;5.53;;;31.20;99.90;;;;;;5007931;28;20041;-55
2023/09/01 01:28:08;;;;;;;6.15;4.90;;;31.20;99.90;;;;;;5013824;28;20029;-54
2023/09/01 01:30:36;;;;;;;7.60;5.50;;;31.20;99.90;;;;;;5013118;28;20108;-56
2023/09/01 01:33:02;;;;;;;5.70;4.47;;;31.10;99.90;;;;;;5013918;28;20028;-55
2023/09/01 01:35:31;;;;;;;5.53;4.85;;;31.10;99.90;;;;;;5013669;28;20038;-55
2023/09/01 01:38:02;;;;;;;6.85;4.65;;;31.10;99.90;;;;;;5013644;28;20065;-55
2023/09/01 01:40:30;;;;;;;6.88;4.90;;;31.20;99.90;;;;;;5013683;28;20144;-55
2023/09/01 01:42:59;;;;;;;6.10;4.78;;;31.10;99.90;;;;;;5013583;28;20018;-55
2023/09/01 01:45:26;;;;;;;5.85;4.68;;;31.10;99.90;;;;;;5013381;28;20026;-54
2023/09/01 01:47:52;;;;;;;5.38;4.30;;;31.10;99.90;;;;;;5013460;28;20018;-54
2023/09/01 01:50:18;;;;;;;5.43;4.28;;;31.10;99.90;;;;;;5013519;28;20052;-55
2023/09/01 01:52:44;;;;;;;6.78;4.57;;;31.10;99.90;;;;;;5013378;28;20492;-55
2023/09/01 01:55:10;;;;;;;6.78;4.65;;;31.10;99.90;;;;;;5013460;28;20042;-55
2023/09/01 01:57:39;;;;;;;6.65;4.72;;;31.10;99.90;;;;;;5013482;28;20104;-55
2023/09/01 02:02:44;;;;;;;6.05;4.95;;;31.00;99.90;;;;;;4992462;28;20236;-53
2023/09/01 02:05:10;;;;;;;5.68;4.78;;;31.00;99.90;;;;;;4993714;28;20106;-52
2023/09/01 02:07:36;;;;;;;5.75;4.50;;;31.10;99.90;;;;;;4993965;28;20511;-50
2023/09/01 02:10:05;;;;;;;6.28;4.70;;;31.10;99.90;;;;;;4992278;28;20109;-53
2023/09/01 02:12:33;;;;;;;4.75;4.20;;;31.00;99.90;;;;;;4992985;28;20045;-52
2023/09/01 02:15:00;;;;;;;6.03;4.40;;;31.00;99.90;;;;;;4993376;28;20042;-52
2023/09/01 02:17:26;;;;;;;8.50;4.78;;;31.00;99.90;;;;;;4993576;28;20055;-52
2023/09/01 02:19:51;;;;;;;4.95;3.85;;;31.00;99.90;;;;;;4993391;28;20076;-51
2023/09/01 02:22:17;;;;;;;4.70;4.00;;;31.00;99.90;;;;;;4993524;28;20026;-51
2023/09/01 02:24:43;;;;;;;4.65;3.90;;;31.00;99.90;;;;;;4993518;28;20026;-52
2023/09/01 02:27:09;;;;;;;6.32;4.00;;;30.90;99.90;;;;;;4993405;28;20022;-51
2023/09/01 02:29:35;;;;;;;5.97;3.83;;;30.90;99.90;;;;;;4993343;28;20030;-52
2023/09/01 02:32:02;;;;;;;4.93;3.70;;;30.90;99.90;;;;;;4993343;28;20026;-51
2023/09/01 02:34:27;;;;;;;5.95;3.97;;;31.00;99.90;;;;;;4993094;28;20065;-52
2023/09/01 02:36:53;;;;;;;6.05;4.50;;;30.90;99.90;;;;;;4993120;28;20058;-53
2023/09/01 02:39:19;;;;;;;5.30;4.07;;;30.90;99.90;;;;;;4993160;28;20031;-52
2023/09/01 02:41:45;;;;;;;5.57;3.95;;;31.00;99.90;;;;;;4992988;28;20031;-52
2023/09/01 02:44:10;;;;;;;4.45;3.60;;;30.90;99.90;;;;;;4993032;28;20022;-53
2023/09/01 02:46:36;;;;;;;5.35;4.00;;;30.90;99.90;;;;;;4993286;28;20050;-53
2023/09/01 02:49:03;;;;;;;5.60;3.85;;;30.90;99.90;;;;;;4992920;28;20053;-52
2023/09/01 02:51:29;;;;;;;4.93;3.88;;;30.90;99.90;;;;;;4992893;28;20014;-52
2023/09/01 02:53:55;;;;;;;6.03;4.10;;;30.90;99.90;;;;;;4992954;28;20089;-52
2023/09/01 02:56:21;;;;;;;4.72;3.67;;;30.90;99.90;;;;;;4992735;28;20022;-53
2023/09/01 02:58:46;;;;;;;4.90;3.65;;;30.80;99.90;;;;;;5007952;28;20114;-53
2023/09/01 03:01:13;;;;;;;4.28;3.47;;;30.90;99.90;;;;;;4993155;28;20051;-53
2023/09/01 03:03:41;;;;;;;5.27;3.63;;;30.80;99.90;;;;;;4993074;28;20027;-54
2023/09/01 03:06:10;;;;;;;5.28;3.33;;;30.80;99.90;;;;;;4993024;28;20077;-53
2023/09/01 03:08:37;;;;;;;4.90;3.22;;;30.80;99.90;;;;;;4991869;28;20033;-53
2023/09/01 03:11:04;;;;;;;4.85;3.60;;;30.80;99.90;;;;;;5007703;28;20483;-53
2023/09/01 03:13:31;;;;;;;4.15;3.40;;;30.80;99.90;;;;;;4992917;28;20053;-52
2023/09/01 03:15:57;;;;;;;5.82;3.67;;;30.80;99.90;;;;;;4992597;28;20169;-52
2023/09/01 03:18:23;;;;;;;4.78;3.38;;;30.80;99.90;;;;;;5007682;28;20495;-53
2023/09/01 03:20:53;;;;;;;4.77;3.70;;;30.80;99.90;;;;;;4992770;28;20027;-51
2023/09/01 03:23:20;;;;;;;5.47;3.65;;;30.80;99.90;;;;;;4992545;28;20467;-53
2023/09/01 03:25:54;;;;;;;5.80;3.90;;;30.80;99.90;;;;;;4995554;28;20027;-52
2023/09/01 03:28:20;;;;;;;4.25;3.28;;;30.80;99.90;;;;;;4996490;28;20082;-52
2023/09/01 03:30:45;;;;;;;4.43;3.13;;;30.80;99.90;;;;;;4996705;28;20110;-52
2023/09/01 03:33:11;;;;;;;4.72;3.40;;;30.70;99.90;;;;;;4996624;28;20038;-52
2023/09/01 03:35:37;;;;;;;4.38;3.55;;;30.70;99.90;;;;;;4996350;28;20034;-52
2023/09/01 03:38:03;;;;;;;4.60;3.72;;;30.70;99.90;;;;;;4996492;28;20105;-52
2023/09/01 03:40:29;;;;;;;4.78;3.10;;;30.70;99.90;;;;;;4996418;28;20126;-52
2023/09/01 03:42:55;;;;;;;4.40;3.25;;;30.70;99.90;;;;;;4996358;28;20054;-53
2023/09/01 03:45:20;;;;;;;3.50;2.70;;;30.70;99.90;;;;;;4996237;28;20098;-52
2023/09/01 03:47:46;;;;;;;3.97;3.00;;;30.70;99.90;;;;;;4996280;28;20019;-53
2023/09/01 03:50:12;;;;;;;4.43;3.45;;;30.70;99.90;;;;;;4996345;28;20026;-53
2023/09/01 03:52:38;;;;;;;3.75;3.00;;;30.70;99.90;;;;;;4996453;28;20081;-53
2023/09/01 03:55:04;;;;;;;4.38;3.42;;;30.70;99.90;;;;;;4995902;28;20129;-53
2023/09/01 03:57:29;;;;;;;4.22;3.13;;;30.70;99.90;;;;;;4996144;28;20023;-52
2023/09/01 03:59:55;;;;;;;4.03;3.20;;;30.70;99.90;;;;;;4996012;28;20049;-52
2023/09/01 04:02:21;;;;;;;4.70;3.53;;;30.70;99.90;;;;;;4996469;28;20122;-53
2023/09/01 04:04:47;;;;;;;4.53;3.88;;;30.70;99.90;;;;;;4994704;28;20117;-53
2023/09/01 04:07:13;;;;;;;4.03;2.85;;;30.70;99.90;;;;;;4996150;28;20018;-52
2023/09/01 04:09:39;;;;;;;4.53;3.17;;;30.70;99.90;;;;;;4995919;28;20452;-52
2023/09/01 04:12:05;;;;;;;4.45;3.50;;;30.70;99.90;;;;;;4995657;28;20030;-52
2023/09/01 04:14:31;;;;;;;4.32;2.97;;;30.60;99.90;;;;;;4995515;28;20031;-53
2023/09/01 04:16:57;;;;;;;3.40;2.72;;;30.60;99.90;;;;;;4995789;28;20022;-53
2023/09/01 04:19:23;;;;;;;5.93;3.53;;;30.60;99.90;;;;;;4995618;28;20022;-53
2023/09/01 04:21:49;;;;;;;5.22;3.45;;;30.60;99.90;;;;;;4995637;28;20110;-53
2023/09/01 04:24:14;;;;;;;5.28;3.63;;;30.60;99.90;;;;;;4995725;28;20566;-52
2023/09/01 04:26:41;;;;;;;6.50;3.30;;;30.60;99.90;;;;;;4995707;28;20506;-52
2023/09/01 04:29:07;;;;;;;5.25;3.17;;;30.60;99.90;;;;;;4995419;28;20061;-52
2023/09/01 04:31:32;;;;;;;5.13;3.50;;;30.60;99.90;;;;;;4995422;28;20058;-52
2023/09/01 04:33:58;;;;;;;6.60;3.58;;;30.60;99.90;;;;;;5010145;28;20057;-53
2023/09/01 04:36:24;;;;;;;4.85;3.67;;;30.60;99.90;;;;;;4994874;28;20031;-53
2023/09/01 04:38:50;;;;;;;5.43;3.92;;;30.60;99.90;;;;;;4994117;28;20061;-53
2023/09/01 04:41:16;;;;;;;4.93;3.20;;;30.60;99.90;;;;;;4995297;28;20030;-52
2023/09/01 04:43:43;;;;;;;5.75;3.80;;;30.50;99.90;;;;;;4995275;28;20080;-51
2023/09/01 04:46:09;;;;;;;5.90;3.47;;;30.60;99.90;;;;;;4995120;28;20026;-52
2023/09/01 04:48:35;;;;;;;4.88;3.72;;;30.50;99.90;;;;;;4994857;28;20282;-52
2023/09/01 04:51:02;;;;;;;5.80;3.70;;;30.50;99.90;;;;;;4995044;28;20030;-52
2023/09/01 04:53:29;;;;;;;3.75;2.95;;;30.50;99.90;;;;;;4994953;28;20014;-52
2023/09/01 04:55:55;;;;;;;6.18;3.50;;;30.50;99.90;;;;;;4994767;28;20039;-52
2023/09/01 04:58:21;;;;;;;4.85;3.40;;;30.50;99.90;;;;;;4994816;28;20023;-52
2023/09/01 05:00:47;;;;;;;4.75;3.35;;;30.50;99.90;;;;;;4994822;28;20153;-53
2023/09/01 05:03:13;;;;;;;5.65;3.50;;;30.50;99.90;;;;;;4994900;28;20463;-52
2023/09/01 05:05:40;;;;;;;5.10;3.65;;;30.50;99.90;;;;;;4994685;28;20109;-53
2023/09/01 05:08:06;;;;;;;5.05;3.53;;;30.50;99.90;;;;;;5009806;28;20058;-52
2023/09/01 05:10:32;;;;;;;4.80;3.42;;;30.50;99.90;;;;;;4994660;28;20061;-52
2023/09/01 05:12:57;;;;;;;4.75;3.67;;;30.50;99.90;;;;;;4993383;28;20426;-53
2023/09/01 05:15:23;;;;;;;3.60;2.83;;;30.50;99.90;;;;;;5009496;28;20082;-51
2023/09/01 05:17:49;;;;;;;3.95;2.45;;;30.40;99.90;;;;;;4994590;28;20328;-52
2023/09/01 05:20:15;;;;;;;4.15;3.13;;;30.50;99.90;;;;;;4994809;28;20018;-52
2023/09/01 05:22:42;;;;;;;3.80;3.15;;;30.40;99.90;;;;;;4994513;28;20026;-52
2023/09/01 05:25:08;;;;;;;4.47;2.70;;;30.40;99.90;;;;;;4994573;28;20510;-52
2023/09/01 05:27:33;;;;;;;5.22;3.00;;;30.40;99.90;;;;;;4994340;28;20442;-52
2023/09/01 05:29:59;;;;;;;4.88;2.90;;;30.40;99.90;;;;;;4994313;28;20110;-52
2023/09/01 05:32:25;;;;;;;3.78;2.70;;;30.40;99.90;;;;;;4994218;28;20379;-53
2023/09/01 05:34:51;;;;;;;4.05;2.42;;;30.40;99.90;;;;;;4994255;28;20038;-52
2023/09/01 05:37:17;;;;;;;3.55;2.90;;;30.40;99.90;;;;;;4994369;28;20164;-53
2023/09/01 05:39:43;;;;;;;4.72;3.17;;;30.40;99.90;;;;;;4994119;28;20027;-53
2023/09/01 05:42:09;;;;;;;4.20;2.67;;;30.40;99.90;;;;;;4994161;28;20495;-53
2023/09/01 05:44:36;;;;;;;4.25;2.83;;;30.40;99.90;;;;;;4993909;28;20061;-53
2023/09/01 05:47:06;;;;;;;5.05;2.50;;;30.40;99.90;;;;;;5007980;28;20034;-53
2023/09/01 05:49:33;;;;;;;3.72;2.53;;;30.40;99.90;;;;;;4994047;28;20058;-53
2023/09/01 05:51:59;;;;;;;4.55;2.40;;;30.40;99.90;;;;;;4993838;28;20026;-53
2023/09/01 05:54:25;;;;;;;3.53;2.60;;;30.40;99.90;;;;;;4993719;28;20065;-54
2023/09/01 05:56:51;;;;;;;3.38;2.65;;;30.40;99.90;;;;;;4993729;28;20018;-53
2023/09/01 05:59:17;;;;;;;3.00;2.50;;;30.40;99.90;;;;;;4994199;28;20438;-53
2023/09/01 06:01:43;;;;;;;3.60;2.80;;;30.40;99.90;;;;;;4993413;28;20058;-53
2023/09/01 06:04:09;;;;;;;3.80;2.40;;;30.30;99.90;;;;;;4993963;28;20482;-52
2023/09/01 06:06:35;;;;;;;3.28;2.80;;;30.30;99.90;;;;;;4993852;28;20031;-51
2023/09/01 06:09:05;;;;;;;3.50;2.38;;;30.30;99.90;;;;;;4993579;28;20031;-52
2023/09/01 06:11:32;;;;;;;4.47;2.95;;;30.30;99.90;;;;;;4993671;28;20061;-53
2023/09/01 06:13:58;;;;;;;3.80;2.40;;;30.30;99.90;;;;;;4993507;28;20058;-53
2023/09/01 06:16:27;;;;;;;5.05;2.40;;;30.30;99.90;;;;;;4993459;28;20081;-53
2023/09/01 06:18:54;;;;;;;4.05;2.60;;;30.30;99.90;;;;;;4993473;28;20125;-53
2023/09/01 06:21:20;;;;;;;3.00;2.33;;;30.30;99.90;;;;;;4993551;28;20027;-53
2023/09/01 06:23:47;;;;;;;3.78;2.55;;;30.30;99.90;;;;;;4993463;28;20194;-54
2023/09/01 06:26:13;;;;;;;3.08;1.95;;;30.30;99.90;;;;;;4993411;28;20030;-54
2023/09/01 06:28:42;;;;;;;3.25;2.40;;;30.30;99.90;;;;;;4993269;28;20026;-53
2023/09/01 06:31:09;;;;;;;3.45;2.60;;;30.30;99.90;;;;;;4993416;28;20077;-53
2023/09/01 06:33:36;;;;;;;2.90;2.22;;;30.30;99.90;;;;;;4992096;28;20069;-53
2023/09/01 06:36:02;;;;;;;3.83;2.92;;;30.30;99.90;;;;;;4991981;28;20116;-53
2023/09/01 06:38:28;;;;;;;3.60;2.03;;;30.30;99.90;;;;;;4993255;28;20402;-54
2023/09/01 06:40:54;;;;;;;3.65;2.25;;;30.30;99.90;;;;;;5008256;28;20034;-53
2023/09/01 06:43:19;;;;;;;3.83;2.33;;;30.30;99.90;;;;;;4993162;28;20118;-54
2023/09/01 06:45:45;;;;;;;4.63;2.50;;;30.30;99.90;;;;;;4991936;28;20112;-53
2023/09/01 06:48:11;;;;;;;4.07;3.03;;;30.30;99.90;;;;;;4992923;28;20494;-54
2023/09/01 06:50:38;;;;;;;3.97;2.58;;;30.30;99.90;;;;;;4992968;28;20025;-53
2023/09/01 06:53:05;;;;;;;3.55;2.83;;;30.30;99.90;;;;;;4992939;28;20019;-53
2023/09/01 06:55:31;;;;;;;3.35;2.10;;;30.30;99.90;;;;;;4992720;28;20039;-53
2023/09/01 06:57:56;;;;;;;5.00;2.50;;;30.30;99.90;;;;;;4992822;28;20029;-54
2023/09/01 07:00:22;;;;;;;3.30;2.45;;;30.30;99.90;;;;;;4992901;28;20114;-53
2023/09/01 07:02:48;;;;;;;4.20;2.60;;;30.30;99.90;;;;;;5008004;28;20026;-53
2023/09/01 07:05:16;;;;;;;4.22;2.60;;;30.40;99.90;;;;;;4992739;28;20018;-54
2023/09/01 07:07:42;;;;;;;3.40;2.33;;;30.40;99.90;;;;;;4991568;28;20101;-53
2023/09/01 07:10:08;;;;;;;3.47;2.38;;;30.40;99.90;;;;;;4992818;28;20440;-53
2023/09/01 07:12:34;;;;;;;4.95;2.75;;;30.40;99.90;;;;;;4992746;28;20422;-53
2023/09/01 07:15:00;;;;;;;3.75;2.70;;;30.40;99.90;;;;;;4992777;28;20027;-53
2023/09/01 07:17:26;;;;;;;3.92;2.58;;;30.40;99.90;;;;;;4992703;28;20077;-51
2023/09/01 07:19:52;;;;;;;4.10;2.53;;;30.40;99.90;;;;;;4992832;28;20022;-51
2023/09/01 07:22:18;;;;;;;4.13;2.78;;;30.40;99.90;;;;;;5007781;28;20037;-53
2023/09/01 07:24:44;;;;;;;4.30;2.75;;;30.40;99.90;;;;;;4992554;28;20030;-52
2023/09/01 07:27:09;;;;;;;3.90;2.65;;;30.40;99.90;;;;;;4992645;28;20018;-52
2023/09/01 07:29:35;;;;;;;3.42;2.58;;;30.40;99.90;;;;;;4992604;28;20030;-53
2023/09/01 07:32:03;;;;;;;3.63;2.70;;;30.40;99.90;;;;;;4992547;28;20022;-54
2023/09/01 07:34:29;;;;;;;3.42;2.55;;;30.40;99.90;;;;;;4992396;28;20080;-53
2023/09/01 07:36:55;;;;;;;5.10;2.77;;;30.40;99.90;;;;;;4992601;28;20049;-52
2023/09/01 07:39:21;;;;;;;3.35;2.50;;;30.40;99.90;;;;;;4992500;28;20066;-53
2023/09/01 07:41:47;;;;;;;5.25;3.10;;;30.40;99.90;;;;;;4992464;28;20023;-53
2023/09/01 07:44:17;;;;;;;4.97;3.13;;;30.40;99.90;;;;;;4992424;28;20427;-53
2023/09/01 07:46:43;;;;;;;4.20;2.90;;;30.40;99.90;;;;;;4991121;28;20034;-53
2023/09/01 07:49:09;;;;;;;5.18;3.35;;;30.50;99.90;;;;;;4992328;28;20140;-55
2023/09/01 07:51:35;;;;;;;3.45;2.78;;;30.40;99.90;;;;;;4992268;28;20069;-55
2023/09/01 07:54:01;;;;;;;3.58;2.90;;;30.40;99.90;;;;;;4992329;28;20093;-54
2023/09/01 07:56:27;;;;;;;3.92;3.17;;;30.40;99.90;;;;;;4992234;28;20358;-54
2023/09/01 07:58:52;;;;;;;4.00;3.13;;;30.40;99.90;;;;;;5007473;28;20080;-54
2023/09/01 08:01:18;;;;;;;5.25;3.20;;;30.40;99.90;;;;;;4992060;28;20098;-54
2023/09/01 08:03:44;;;;;;;3.28;2.97;;;30.40;99.90;;;;;;4992256;28;20030;-53
2023/09/01 08:06:09;;;;;;;4.47;3.35;;;30.40;99.90;;;;;;4992326;28;20022;-54
2023/09/01 08:08:35;;;;;;;4.38;3.10;;;30.40;99.90;;;;;;4992153;28;20104;-54
2023/09/01 08:11:01;;;;;;;4.80;3.78;;;30.40;99.90;;;;;;4993824;28;20348;-54
2023/09/01 08:13:27;;;;;;;4.95;3.60;;;30.40;99.90;;;;;;4995735;28;20026;-53
2023/09/01 08:15:53;;;;;;;4.20;3.25;;;30.40;99.90;;;;;;4995905;28;20031;-52
2023/09/01 08:18:19;;;;;;;4.38;3.17;;;30.50;99.90;;;;;;4995690;28;20037;-53
2023/09/01 08:20:45;;;;;;;4.80;3.50;;;30.50;99.90;;;;;;5010613;28;20026;-52
2023/09/01 08:23:11;;;;;;;5.10;3.53;;;30.50;99.90;;;;;;4995515;28;20022;-52
2023/09/01 08:25:38;;;;;;;3.08;2.78;;;30.50;99.90;;;;;;4994112;28;20430;-55
2023/09/01 08:28:04;;;;;;;5.00;3.90;;;30.50;99.90;;;;;;4995469;28;20026;-53
2023/09/01 08:30:30;;;;;;;4.60;3.60;;;30.40;99.90;;;;;;4995460;28;20018;-52
2023/09/01 08:32:56;;;;;;;4.68;3.78;;;30.50;99.90;;;;;;4995528;28;20442;-53
2023/09/01 08:35:22;;;;;;;6.97;4.35;;;30.50;99.90;;;;;;4995314;28;20372;-52
2023/09/01 08:37:48;;;;;;;4.60;4.15;;;30.50;99.90;;;;;;4995290;28;20092;-53
2023/09/01 08:40:14;;;;;;;5.72;4.10;;;30.50;99.90;;;;;;4995179;28;20026;-52
2023/09/01 08:42:47;;;;;;;5.40;3.83;;;30.50;99.90;;;;;;4995387;28;20023;-53
2023/09/01 08:45:19;;;;;;;4.22;3.25;;;30.50;99.90;;;;;;5010207;28;20026;-52
2023/09/01 08:47:49;;;;;;;3.53;2.97;;;30.50;99.90;;;;;;4995111;28;20425;-53
2023/09/01 08:50:16;;;;;;;5.50;3.47;;;30.50;99.90;;;;;;4995007;28;20031;-53
2023/09/01 08:52:46;;;;;;;7.00;3.78;;;30.50;99.90;;;;;;4994998;28;20054;-53
2023/09/01 08:55:13;;;;;;;5.97;4.00;;;30.50;99.90;;;;;;4994983;28;20117;-53
2023/09/01 08:57:40;;;;;;;5.47;4.10;;;30.60;99.90;;;;;;4995051;28;20034;-53
2023/09/01 09:00:10;;;;;;;5.40;3.88;;;30.60;99.90;;;;;;4994952;28;20030;-54
2023/09/01 09:02:41;;;;;;;6.95;3.83;;;30.50;99.90;;;;;;4994789;28;20046;-53
2023/09/01 09:05:13;;;;;;;5.30;3.78;;;30.60;99.90;;;;;;4994690;28;20101;-54
2023/09/01 09:07:40;;;;;;;4.70;4.00;;;30.60;99.90;;;;;;4994842;28;20478;-53
2023/09/01 09:10:06;;;;;;;7.05;4.43;;;30.60;99.90;;;;;;4994763;28;20038;-53
2023/09/01 09:12:37;;;;;;;6.50;4.65;;;30.60;99.90;;;;;;4994795;28;20539;-54
2023/09/01 09:15:04;;;;;;;6.45;4.45;;;30.60;99.90;;;;;;4994630;28;20486;-54
2023/09/01 09:17:40;;;;;;;5.30;4.63;;;30.60;99.90;;;;;;4994759;28;20486;-53
2023/09/01 09:20:06;;;;;;;6.68;4.85;;;30.60;99.90;;;;;;4994610;28;20092;-54
2023/09/01 09:22:48;;;;;;;5.75;4.35;;;30.60;99.90;;;;;;4993246;28;20073;-53
2023/09/01 09:25:31;;;;;;;6.95;4.70;;;30.60;99.90;;;;;;4994397;28;20037;-52
2023/09/01 09:28:11;;;;;;;7.38;5.07;;;30.60;99.90;;;;;;4994478;28;20026;-53
2023/09/01 09:30:51;;;;;;;5.72;4.50;;;30.70;99.90;;;;;;4994244;28;20069;-53
2023/09/01 09:33:29;;;;;;;7.00;5.07;;;30.70;99.90;;;;;;5009306;28;20175;-53
2023/09/01 09:35:55;;;;;;;6.43;4.97;;;30.70;99.90;;;;;;4994108;28;20034;-54
2023/09/01 09:38:21;;;;;;;6.75;5.13;;;30.70;99.90;;;;;;4994314;28;20371;-54
2023/09/01 09:40:57;;;;;;;6.38;5.22;;;30.70;99.90;;;;;;4994346;28;20032;-53
2023/09/01 09:43:23;;;;;;;6.75;5.15;;;30.60;99.90;;;;;;4993921;28;20053;-54
2023/09/01 09:45:52;;;;;;;7.38;5.10;;;30.70;99.90;;;;;;5008807;28;20062;-53
2023/09/01 09:48:19;;;;;;;6.43;5.47;;;30.70;99.90;;;;;;5009089;28;20117;-53
2023/09/01 09:50:50;;;;;;;6.75;5.00;;;30.70;99.90;;;;;;4993692;28;20102;-53
2023/09/01 09:53:20;;;;;;;7.97;5.50;;;30.70;99.90;;;;;;4993773;28;20026;-54
2023/09/01 09:55:48;;;;;;;6.28;4.80;;;30.70;99.90;;;;;;4993738;28;20070;-54
2023/09/01 09:58:15;;;;;;;;;;;30.70;99.90;;;;;;4994289;28;20030;-53
2023/09/01 10:00:53;;;;;;;;;;;30.70;99.90;;;;;;5008989;28;20282;-53
2023/09/01 10:03:23;;;;;;;6.47;4.72;;;30.80;99.90;;;;;;5008767;28;20008;-54
2023/09/01 10:05:53;;;;;;;8.20;5.15;;;30.80;99.90;;;;;;4993589;28;20105;-53
2023/09/01 10:08:21;;;;;;;7.03;5.40;;;30.80;99.90;;;;;;4993460;28;20022;-53
2023/09/01 10:10:46;;;;;;;6.78;5.22;;;30.80;99.90;;;;;;4993693;28;20029;-53
2023/09/01 10:13:14;;;;;;;5.72;5.00;;;30.80;99.90;;;;;;4993443;28;20027;-54
2023/09/01 10:15:40;;;;;;;7.35;5.13;;;30.80;99.90;;;;;;4993481;28;20478;-53
2023/09/01 10:18:08;;;;;;;5.47;4.93;;;30.90;99.90;;;;;;4993576;28;20101;-52
2023/09/01 10:20:43;;;;;;;6.95;5.05;;;30.80;99.90;;;;;;4993401;28;20026;-52
2023/09/01 10:23:10;;;;;;;5.72;4.90;;;30.90;99.90;;;;;;4993331;28;20037;-53
2023/09/01 10:25:36;;;;;;;5.63;4.80;;;30.90;99.90;;;;;;4993390;28;20088;-55
2023/09/01 10:28:13;;;;;;;6.05;5.15;;;30.90;99.90;;;;;;4993465;28;20053;-53
2023/09/01 10:30:40;;;;;;;6.57;4.55;;;30.90;99.90;;;;;;4991862;28;20561;-53
2023/09/01 10:33:26;;;;;;;5.45;4.78;;;30.90;99.90;;;;;;4992818;28;20038;-53
2023/09/01 10:35:54;;;;;;;5.97;4.73;;;30.90;99.90;;;;;;4992872;28;20034;-53
2023/09/01 10:38:35;;;;;;;4.95;4.25;;;31.00;99.90;;;;;;4992993;28;20259;-53
2023/09/01 10:41:00;;;;;;;6.22;4.80;;;31.00;99.90;;;;;;4993281;28;20034;-53
2023/09/01 10:43:36;;;;;;;7.03;4.93;;;31.00;99.90;;;;;;4993163;28;20042;-53
2023/09/01 10:46:14;;;;;;;6.57;5.00;;;31.00;99.90;;;;;;4993160;28;20024;-54
2023/09/01 10:48:59;;;;;;;6.05;4.88;;;31.00;99.90;;;;;;4992991;28;20015;-53
2023/09/01 10:51:40;;;;;;;5.90;4.78;;;31.00;99.90;;;;;;4992815;28;20029;-53
2023/09/01 10:54:14;;;;;;;7.90;5.72;;;31.00;99.90;;;;;;4992843;28;20392;-52
2023/09/01 10:56:57;;;;;;;5.45;4.85;;;31.10;99.90;;;;;;4992908;28;20034;-52
2023/09/01 10:59:31;;;;;;;6.03;4.72;;;31.10;99.90;;;;;;4992679;28;20065;-53
2023/09/01 11:02:16;;;;;;;6.55;4.82;;;31.00;99.90;;;;;;4992558;28;20125;-52
2023/09/01 11:04:42;;;;;;;6.78;5.40;;;31.10;99.90;;;;;;4992695;28;20027;-52
2023/09/01 11:07:08;;;;;;;5.93;4.70;;;31.10;99.90;;;;;;4992784;28;20023;-53
2023/09/01 11:09:33;;;;;;;6.50;4.82;;;31.10;99.90;;;;;;4993009;28;20076;-53
2023/09/01 11:12:07;;;;;;;6.32;4.88;;;31.20;99.90;;;;;;4992711;28;20026;-53
2023/09/01 11:14:35;;;;;;;6.07;4.78;;;31.20;99.90;;;;;;4992790;28;20054;-53
2023/09/01 11:17:03;;;;;;;6.20;4.75;;;31.10;99.90;;;;;;4993022;28;20027;-52
2023/09/01 11:19:46;;;;;;;5.35;4.85;;;31.20;99.90;;;;;;4992542;28;20029;-52
2023/09/01 11:22:12;;;;;;;5.43;4.80;;;31.20;99.90;;;;;;4992573;28;20030;-53
2023/09/01 11:24:37;;;;;;;5.32;4.40;;;31.20;99.90;;;;;;4992589;28;20386;-53
2023/09/01 11:27:03;;;;;;;5.72;4.60;;;31.20;99.90;;;;;;4992967;28;20019;-53
2023/09/01 11:29:29;;;;;;;6.10;4.57;;;31.20;99.90;;;;;;4992462;28;20451;-52
2023/09/01 11:31:55;;;;;;;5.20;4.50;;;31.30;99.90;;;;;;4992562;28;20030;-53
2023/09/01 11:34:21;;;;;;;5.07;4.32;;;31.30;99.90;;;;;;4992360;28;20036;-53
2023/09/01 11:36:49;;;;;;;5.03;4.10;;;31.30;99.90;;;;;;4992304;28;20042;-52
2023/09/01 11:39:14;;;;;;;5.55;4.22;;;31.20;99.90;;;;;;5007444;28;20471;-53
2023/09/01 11:41:41;;;;;;;5.63;4.55;;;31.30;99.90;;;;;;4992368;28;20061;-51
2023/09/01 11:44:07;;;;;;;5.38;4.75;;;31.30;99.90;;;;;;4992544;28;20066;-53
2023/09/01 11:46:34;;;;;;;4.60;4.10;;;31.30;99.90;;;;;;4995150;28;20026;-52
2023/09/01 11:49:01;;;;;;;6.35;4.35;;;31.30;99.90;;;;;;4996353;28;20133;-53
2023/09/01 11:51:35;;;;;;;5.10;4.15;;;31.30;99.90;;;;;;4994954;28;20121;-53
2023/09/01 11:54:01;;;;;;;5.28;4.20;;;31.30;99.90;;;;;;4996308;28;20434;-53
2023/09/01 11:56:27;;;;;;;4.45;3.95;;;31.30;99.90;;;;;;4996093;28;20038;-54
2023/09/01 11:58:55;;;;;;;5.25;4.13;;;31.40;99.90;;;;;;4996177;28;20072;-53
2023/09/01 12:01:23;;;;;;;4.78;3.90;;;31.40;99.90;;;;;;4995712;28;20129;-53
2023/09/01 12:03:53;;;;;;;5.45;3.95;;;31.30;99.90;;;;;;4995858;28;20062;-52
2023/09/01 12:06:24;;;;;;;4.60;3.92;;;31.40;99.90;;;;;;5010887;28;20553;-53
2023/09/01 12:08:52;;;;;;;4.43;3.80;;;31.40;99.90;;;;;;4995768;28;20068;-52
2023/09/01 12:11:19;;;;;;;4.60;3.72;;;31.40;99.90;;;;;;4995947;28;20026;-52
2023/09/01 12:13:45;;;;;;;3.97;3.57;;;31.40;99.90;;;;;;4995896;28;20030;-52
2023/09/01 12:16:24;;;;;;;3.95;3.55;;;31.40;99.90;;;;;;4995779;28;20090;-53
2023/09/01 12:18:51;;;;;;;4.75;4.00;;;31.40;99.90;;;;;;4995838;28;20027;-53
2023/09/01 12:21:17;;;;;;;4.38;3.75;;;31.40;99.90;;;;;;4995939;28;20026;-53
2023/09/01 12:23:44;;;;;;;5.07;3.40;;;31.40;99.90;;;;;;4995851;28;20018;-52
2023/09/01 12:26:14;;;;;;;5.45;3.85;;;31.40;99.90;;;;;;4995928;28;20113;-52
2023/09/01 12:28:41;;;;;;;4.25;3.40;;;31.50;99.90;;;;;;4995842;28;20407;-52
2023/09/01 12:31:09;;;;;;;4.78;3.80;;;31.50;99.90;;;;;;4995818;28;20026;-52
2023/09/01 12:33:35;;;;;;;5.05;3.72;;;31.50;99.90;;;;;;5010921;28;20037;-53
2023/09/01 12:36:02;;;;;;;4.93;3.97;;;31.50;99.90;;;;;;5010474;28;20037;-52
2023/09/01 12:38:28;;;;;;;4.22;3.45;;;31.50;99.90;;;;;;4995604;28;20248;-53
2023/09/01 12:40:55;;;;;;;3.75;3.35;;;31.50;99.90;;;;;;5010418;28;20165;-53
2023/09/01 12:43:21;;;;;;;3.85;3.42;;;31.50;99.90;;;;;;4995363;28;20534;-52
2023/09/01 12:45:47;;;;;;;5.35;3.47;;;31.50;99.90;;;;;;4995260;28;20101;-52
2023/09/01 12:48:15;;;;;;;5.22;3.58;;;31.50;99.90;;;;;;4995278;28;20031;-52
2023/09/01 12:50:45;;;;;;;3.92;3.22;;;31.60;99.90;;;;;;4995294;28;20118;-53
2023/09/01 12:53:11;;;;;;;4.28;3.60;;;31.60;99.90;;;;;;4995249;28;20025;-52